createdAt,value
2023-05-12T00:00:30.268Z,51.07
2023-05-12T00:02:57.742Z,50.73
2023-05-12T00:05:25.410Z,51.16
2023-05-12T00:07:52.804Z,51.06
2023-05-12T00:10:21.083Z,50.34
2023-05-12T00:12:49.186Z,50.67
2023-05-12T00:15:19.625Z,50.02
2023-05-12T00:17:47.096Z,49.70
2023-05-12T00:20:14.519Z,51.01
2023-05-12T00:22:42.565Z,50.02
2023-05-12T00:25:10.395Z,50.37
2023-05-12T00:27:37.781Z,51.27
2023-05-12T00:30:06.907Z,49.69
2023-05-12T00:32:35.619Z,50.15
2023-05-12T00:35:03.041Z,49.23
2023-05-12T00:37:30.539Z,50.09
2023-05-12T00:39:57.931Z,50.20
2023-05-12T00:42:25.306Z,50.62
2023-05-12T00:44:52.703Z,48.96
2023-05-12T00:47:21.674Z,49.52
2023-05-12T00:49:50.529Z,51.06
2023-05-12T00:52:17.952Z,51.15
2023-05-12T00:54:45.476Z,52.08
2023-05-12T00:57:13.669Z,50.99
2023-05-12T00:59:41.145Z,51.63
2023-05-12T01:02:08.750Z,50.86
2023-05-12T01:04:37.101Z,50.94
2023-05-12T01:07:10.937Z,50.18
2023-05-12T01:09:38.317Z,50.35
2023-05-12T01:12:06.313Z,49.63
2023-05-12T01:14:34.168Z,49.59
2023-05-12T01:17:05.152Z,49.41
2023-05-12T01:19:41.618Z,50.23
2023-05-12T01:22:11.024Z,50.55
2023-05-12T01:24:46.109Z,50.69
2023-05-12T01:27:16.415Z,53.05
2023-05-12T01:29:45.799Z,51.82
2023-05-12T01:32:13.776Z,52.62
2023-05-12T01:34:42.357Z,52.24
2023-05-12T01:37:09.858Z,51.63
2023-05-12T01:39:37.455Z,52.69
2023-05-12T01:42:05.619Z,51.27
2023-05-12T01:44:34.600Z,50.96
2023-05-12T01:47:02.503Z,51.09
2023-05-12T01:49:29.901Z,51.50
2023-05-12T01:51:57.383Z,51.63
2023-05-12T01:54:24.791Z,52.05
2023-05-12T01:56:52.195Z,51.86
2023-05-12T01:59:19.697Z,53.08
2023-05-12T02:01:48.476Z,52.30
2023-05-12T02:04:16.294Z,52.21
2023-05-12T02:06:43.816Z,51.99
2023-05-12T02:09:11.244Z,52.69
2023-05-12T02:11:38.686Z,52.87
2023-05-12T02:14:06.630Z,52.18
2023-05-12T02:16:34.109Z,51.79
2023-05-12T02:19:02.898Z,51.71
2023-05-12T02:21:31.309Z,52.16
2023-05-12T02:23:58.732Z,52.15
2023-05-12T02:26:26.170Z,53.26
2023-05-12T02:28:53.568Z,52.98
2023-05-12T02:31:20.996Z,52.30
2023-05-12T02:33:48.468Z,52.89
2023-05-12T02:36:17.197Z,53.61
2023-05-12T02:38:44.570Z,52.85
2023-05-12T02:41:11.967Z,53.62
2023-05-12T02:43:39.757Z,53.74
2023-05-12T02:46:07.204Z,53.90
2023-05-12T02:48:34.633Z,54.25
2023-05-12T02:51:02.073Z,55.29
2023-05-12T02:53:30.864Z,55.07
2023-05-12T02:55:58.300Z,55.87
2023-05-12T02:58:25.872Z,54.03
2023-05-12T03:01:03.085Z,56.68
2023-05-12T03:03:37.289Z,56.69
2023-05-12T03:06:06.083Z,56.16
2023-05-12T03:08:34.910Z,56.55
2023-05-12T03:11:02.401Z,56.25
2023-05-12T03:13:29.830Z,56.45
2023-05-12T03:16:01.149Z,56.17
2023-05-12T03:18:28.977Z,56.83
2023-05-12T03:20:56.539Z,57.13
2023-05-12T03:23:23.957Z,56.23
2023-05-12T03:25:52.765Z,55.31
2023-05-12T03:28:20.178Z,56.32
2023-05-12T03:30:47.573Z,54.57
2023-05-12T03:33:15.011Z,56.03
2023-05-12T03:35:42.511Z,55.07
2023-05-12T03:38:09.894Z,54.91
2023-05-12T03:40:37.317Z,55.42
2023-05-12T03:43:06.054Z,55.29
2023-05-12T03:45:33.448Z,56.02
2023-05-12T03:48:01.372Z,56.63
2023-05-12T03:50:28.821Z,55.28
2023-05-12T03:52:56.804Z,57.08
2023-05-12T03:55:24.265Z,55.39
2023-05-12T03:57:51.748Z,54.60
2023-05-12T04:00:21.471Z,55.89
2023-05-12T04:02:49.134Z,55.10
2023-05-12T04:05:16.847Z,55.46
2023-05-12T04:07:44.259Z,54.38
2023-05-12T04:10:11.747Z,54.82
2023-05-12T04:12:39.285Z,56.29
2023-05-12T04:15:07.981Z,54.69
2023-05-12T04:17:36.907Z,54.66
2023-05-12T04:20:04.734Z,54.45
2023-05-12T04:22:32.167Z,54.86
2023-05-12T04:24:59.582Z,54.12
2023-05-12T04:27:26.986Z,55.33
2023-05-12T04:29:54.636Z,54.62
2023-05-12T04:32:22.102Z,55.74
2023-05-12T04:34:51.647Z,54.31
2023-05-12T04:37:19.052Z,55.03
2023-05-12T04:39:46.436Z,53.42
2023-05-12T04:42:13.968Z,54.74
2023-05-12T04:44:41.406Z,56.58
2023-05-12T04:47:08.803Z,53.80
2023-05-12T04:49:36.205Z,55.37
2023-05-12T04:52:05.656Z,55.30
2023-05-12T04:54:33.157Z,55.46
2023-05-12T04:57:00.573Z,54.86
2023-05-12T04:59:28.326Z,54.67
2023-05-12T05:01:56.014Z,56.71
2023-05-12T05:04:23.867Z,56.55
2023-05-12T05:06:51.281Z,55.15
2023-05-12T05:09:20.023Z,56.73
2023-05-12T05:11:47.850Z,55.45
2023-05-12T05:14:15.695Z,55.58
2023-05-12T05:16:43.415Z,54.38
2023-05-12T05:19:20.080Z,54.21
2023-05-12T05:21:53.560Z,53.98
2023-05-12T05:24:22.303Z,52.62
2023-05-12T05:26:49.884Z,52.83
2023-05-12T05:29:17.312Z,51.83
2023-05-12T05:31:44.905Z,52.41
2023-05-12T05:34:12.477Z,51.72
2023-05-12T05:36:40.299Z,48.59
2023-05-12T05:39:10.208Z,46.84
2023-05-12T05:41:39.086Z,49.34
2023-05-12T05:44:06.593Z,50.17
2023-05-12T05:46:34.040Z,48.10
2023-05-12T05:49:01.543Z,46.99
2023-05-12T05:51:28.941Z,47.77
2023-05-12T05:53:56.356Z,47.46
2023-05-12T05:56:24.137Z,48.23
2023-05-12T05:58:53.341Z,42.35
2023-05-12T06:01:20.822Z,38.46
2023-05-12T06:03:48.285Z,39.73
2023-05-12T06:06:15.961Z,40.31
2023-05-12T06:08:43.343Z,40.14
2023-05-12T06:11:10.768Z,40.39
2023-05-12T06:13:38.329Z,42.37
2023-05-12T06:16:07.434Z,45.62
2023-05-12T06:18:37.852Z,47.73
2023-05-12T06:21:06.188Z,49.42
2023-05-12T06:23:33.642Z,48.70
2023-05-12T06:26:01.065Z,49.81
2023-05-12T06:28:28.489Z,48.77
2023-05-12T06:30:55.949Z,49.55
2023-05-12T06:33:24.725Z,48.61
2023-05-12T06:35:52.181Z,49.46
2023-05-12T06:38:19.627Z,49.03
2023-05-12T06:40:47.023Z,47.51
2023-05-12T06:43:14.852Z,48.07
2023-05-12T06:45:42.380Z,49.49
2023-05-12T06:48:10.282Z,49.37
2023-05-12T06:50:39.173Z,49.19
2023-05-12T06:53:08.049Z,49.66
2023-05-12T06:55:35.558Z,47.98
2023-05-12T06:58:03.266Z,49.19
2023-05-12T07:00:30.674Z,48.40
2023-05-12T07:02:58.388Z,48.87
2023-05-12T07:05:25.931Z,48.12
2023-05-12T07:07:54.678Z,49.12
2023-05-12T07:10:22.098Z,49.52
2023-05-12T07:12:49.536Z,48.37
2023-05-12T07:15:16.921Z,48.83
2023-05-12T07:17:44.381Z,48.29
2023-05-12T07:20:12.799Z,47.60
2023-05-12T07:22:40.276Z,47.33
2023-05-12T07:25:09.757Z,47.74
2023-05-12T07:27:37.208Z,48.34
2023-05-12T07:30:05.691Z,48.74
2023-05-12T07:32:33.300Z,48.54
2023-05-12T07:35:00.835Z,46.76
2023-05-12T07:37:28.648Z,46.51
2023-05-12T07:39:56.145Z,47.02
2023-05-12T07:42:24.896Z,46.21
2023-05-12T07:44:52.279Z,46.57
2023-05-12T07:47:19.648Z,46.58
2023-05-12T07:49:47.092Z,46.70
2023-05-12T07:52:14.822Z,46.28
2023-05-12T07:54:42.235Z,46.88
2023-05-12T07:57:09.681Z,45.88
2023-05-12T07:59:38.423Z,46.14
2023-05-12T08:02:06.471Z,46.49
2023-05-12T08:04:33.981Z,47.05
2023-05-12T08:07:01.606Z,45.45
2023-05-12T08:09:29.138Z,45.33
2023-05-12T08:11:56.555Z,45.45
2023-05-12T08:14:25.628Z,44.68
2023-05-12T08:16:54.429Z,43.58
2023-05-12T08:19:21.913Z,43.48
2023-05-12T08:21:49.592Z,43.42
2023-05-12T08:24:17.126Z,42.63
2023-05-12T08:26:44.553Z,42.43
2023-05-12T08:29:12.675Z,43.18
2023-05-12T08:31:40.427Z,42.08
2023-05-12T08:34:11.149Z,42.01
2023-05-12T08:36:39.106Z,42.30
2023-05-12T08:39:07.768Z,42.05
2023-05-12T08:41:43.898Z,41.11
2023-05-12T08:44:12.177Z,40.17
2023-05-12T08:46:40.036Z,39.93
2023-05-12T08:49:15.753Z,39.31
2023-05-12T08:51:46.667Z,40.50
2023-05-12T08:54:19.609Z,40.04
2023-05-12T08:59:18.569Z,38.68
2023-05-12T09:01:47.497Z,39.26
2023-05-12T09:04:16.457Z,38.18
2023-05-12T09:06:44.662Z,37.83
2023-05-12T09:09:15.564Z,37.88
2023-05-12T09:11:44.071Z,38.18
2023-05-12T09:14:18.909Z,38.03
2023-05-12T09:16:49.759Z,37.14
2023-05-12T09:19:21.928Z,36.44
2023-05-12T09:21:49.594Z,36.30
2023-05-12T09:24:17.051Z,36.87
2023-05-12T09:26:49.301Z,36.87
2023-05-12T09:29:27.795Z,36.53
2023-05-12T09:31:59.539Z,36.88
2023-05-12T09:34:31.381Z,36.91
2023-05-12T09:37:01.037Z,37.62
2023-05-12T09:39:29.371Z,38.54
2023-05-12T09:41:57.005Z,37.41
2023-05-12T09:44:25.742Z,37.14
2023-05-12T09:46:53.557Z,37.65
2023-05-12T09:49:21.603Z,36.99
2023-05-12T09:51:54.782Z,37.57
2023-05-12T09:54:26.408Z,36.53
2023-05-12T09:56:58.195Z,36.60
2023-05-12T09:59:28.279Z,37.00
2023-05-12T10:02:00.007Z,36.46
2023-05-12T10:04:29.680Z,36.41
2023-05-12T10:06:59.989Z,35.86
2023-05-12T10:09:33.987Z,34.00
2023-05-12T10:12:04.357Z,35.46
2023-05-12T10:14:32.360Z,35.36
2023-05-12T10:17:00.903Z,35.70
2023-05-12T10:19:31.001Z,36.47
2023-05-12T10:21:59.778Z,36.33
2023-05-12T10:24:28.132Z,36.26
2023-05-12T10:26:56.657Z,35.94
2023-05-12T10:29:29.647Z,35.30
2023-05-12T10:31:57.650Z,35.84
2023-05-12T10:34:31.028Z,35.77
2023-05-12T10:36:59.853Z,36.58
2023-05-12T10:39:30.808Z,36.66
2023-05-12T10:42:07.091Z,36.45
2023-05-12T10:44:35.221Z,36.36
2023-05-12T10:47:03.146Z,36.81
2023-05-12T10:49:34.779Z,37.35
2023-05-12T10:52:03.585Z,37.32
2023-05-12T10:54:33.938Z,37.04
2023-05-12T10:57:02.144Z,37.96
2023-05-12T10:59:30.057Z,36.89
2023-05-12T11:02:01.290Z,36.27
2023-05-12T11:04:42.247Z,36.79
2023-05-12T11:07:14.091Z,37.07
2023-05-12T11:09:56.861Z,37.13
2023-05-12T11:12:27.379Z,37.43
2023-05-12T11:14:55.065Z,37.71
2023-05-12T11:17:22.621Z,37.51
2023-05-12T11:19:51.175Z,37.33
2023-05-12T11:22:21.618Z,37.04
2023-05-12T11:24:50.783Z,37.32
2023-05-12T11:27:22.592Z,37.36
2023-05-12T11:29:57.927Z,36.62
2023-05-12T11:32:25.402Z,37.41
2023-05-12T11:34:52.868Z,36.62
2023-05-12T11:37:21.923Z,36.20
2023-05-12T11:39:49.489Z,36.50
2023-05-12T11:42:19.789Z,36.46
2023-05-12T11:44:48.781Z,36.56
2023-05-12T11:47:17.580Z,36.48
2023-05-12T11:49:49.386Z,36.49
2023-05-12T11:52:17.858Z,36.11
2023-05-12T11:54:51.014Z,37.36
2023-05-12T11:57:26.931Z,36.89
2023-05-12T11:59:59.080Z,36.27
2023-05-12T12:02:27.369Z,35.38
2023-05-12T12:04:55.304Z,36.68
2023-05-12T12:07:30.150Z,36.98
2023-05-12T12:09:59.458Z,36.85
2023-05-12T12:12:26.860Z,37.15
2023-05-12T12:14:56.615Z,37.80
2023-05-12T12:17:30.846Z,37.78
2023-05-12T12:19:58.448Z,37.94
2023-05-12T12:22:25.988Z,37.48
2023-05-12T12:24:53.651Z,37.35
2023-05-12T12:27:22.577Z,37.70
2023-05-12T12:29:50.790Z,37.99
2023-05-12T12:32:18.443Z,37.62
2023-05-12T12:34:46.353Z,36.89
2023-05-12T12:37:14.046Z,36.26
2023-05-12T12:39:41.428Z,37.26
2023-05-12T12:42:09.110Z,36.42
2023-05-12T12:44:37.974Z,35.16
2023-05-12T12:47:06.431Z,35.82
2023-05-12T12:49:33.932Z,35.72
2023-05-12T12:52:02.160Z,35.58
2023-05-12T12:54:29.676Z,35.91
2023-05-12T12:56:57.175Z,35.68
2023-05-12T12:59:24.743Z,34.82
2023-05-12T13:01:53.645Z,35.03
2023-05-12T13:04:23.005Z,35.81
2023-05-12T13:06:50.606Z,35.87
2023-05-12T13:09:20.008Z,35.63
2023-05-12T13:11:48.820Z,36.45
2023-05-12T13:14:17.032Z,35.33
2023-05-12T13:16:44.457Z,35.00
2023-05-12T13:19:13.695Z,35.22
2023-05-12T13:21:41.905Z,35.64
2023-05-12T13:24:09.558Z,35.57
2023-05-12T13:26:37.112Z,36.26
2023-05-12T13:29:05.121Z,36.56
2023-05-12T13:31:32.934Z,36.18
2023-05-12T13:34:00.470Z,36.33
2023-05-12T13:36:29.801Z,36.62
2023-05-12T13:38:57.214Z,36.29
2023-05-12T13:41:24.849Z,36.16
2023-05-12T13:43:52.373Z,34.85
2023-05-12T13:46:19.986Z,34.65
2023-05-12T13:48:48.012Z,35.83
2023-05-12T13:51:15.831Z,36.78
2023-05-12T13:53:44.608Z,36.99
2023-05-12T13:56:12.063Z,35.03
2023-05-12T13:58:39.535Z,34.55
2023-05-12T14:01:08.742Z,35.10
2023-05-12T14:03:36.967Z,35.52
2023-05-12T14:06:04.602Z,34.82
2023-05-12T14:08:32.027Z,35.92
2023-05-12T14:11:01.162Z,35.63
2023-05-12T14:13:28.542Z,35.73
2023-05-12T14:15:56.519Z,35.71
2023-05-12T14:18:25.112Z,36.14
2023-05-12T14:20:53.026Z,35.91
2023-05-12T14:23:20.544Z,35.66
2023-05-12T14:25:48.002Z,35.46
2023-05-12T14:28:16.894Z,35.70
2023-05-12T14:30:45.235Z,35.73
2023-05-12T14:33:13.094Z,36.26
2023-05-12T14:35:40.585Z,36.70
2023-05-12T14:38:08.021Z,36.90
2023-05-12T14:40:35.464Z,36.72
2023-05-12T14:43:03.367Z,36.59
2023-05-12T14:45:32.466Z,36.94
2023-05-12T14:48:00.116Z,36.00
2023-05-12T14:50:28.516Z,37.23
2023-05-12T14:52:56.023Z,37.44
2023-05-12T14:55:24.494Z,37.54
2023-05-12T14:57:51.980Z,37.81
2023-05-12T15:00:21.212Z,37.79
2023-05-12T15:02:50.114Z,37.46
2023-05-12T15:05:17.819Z,37.91
2023-05-12T15:07:45.400Z,36.94
2023-05-12T15:10:12.986Z,37.06
2023-05-12T15:12:40.439Z,36.85
2023-05-12T15:15:11.403Z,37.30
2023-05-12T15:17:39.251Z,37.00
2023-05-12T15:20:10.898Z,37.49
2023-05-12T15:22:38.348Z,37.91
2023-05-12T15:25:06.725Z,37.39
2023-05-12T15:27:34.181Z,37.47
2023-05-12T15:30:01.648Z,37.17
2023-05-12T15:32:29.122Z,37.10
2023-05-12T15:34:57.162Z,36.74
2023-05-12T15:37:26.003Z,36.77
2023-05-12T15:39:53.470Z,36.62
2023-05-12T15:42:26.166Z,37.09
2023-05-12T15:44:59.913Z,37.83
2023-05-12T15:47:27.653Z,36.86
2023-05-12T15:49:55.109Z,36.85
2023-05-12T15:52:22.944Z,36.98
2023-05-12T15:54:51.771Z,37.41
2023-05-12T15:57:19.179Z,37.61
2023-05-12T15:59:47.548Z,37.43
2023-05-12T16:02:15.171Z,37.60
2023-05-12T16:04:42.753Z,37.46
2023-05-12T16:07:10.228Z,36.97
2023-05-12T16:09:37.658Z,37.41
2023-05-12T16:12:09.336Z,36.85
2023-05-12T16:14:36.859Z,36.45
2023-05-12T16:17:04.354Z,36.46
2023-05-12T16:19:31.815Z,37.07
2023-05-12T16:22:00.252Z,37.09
2023-05-12T16:24:28.573Z,37.13
2023-05-12T16:26:56.243Z,36.97
2023-05-12T16:29:25.255Z,37.06
2023-05-12T16:31:53.622Z,36.94
2023-05-12T16:34:21.215Z,36.85
2023-05-12T16:36:48.814Z,36.90
2023-05-12T16:39:17.926Z,37.52
2023-05-12T16:41:45.710Z,36.72
2023-05-12T16:44:13.181Z,36.88
2023-05-12T16:46:43.293Z,36.43
2023-05-12T16:49:10.871Z,36.85
2023-05-12T16:51:38.858Z,36.69
2023-05-12T16:54:06.335Z,36.73
2023-05-12T16:56:33.798Z,36.20
2023-05-12T16:59:01.327Z,36.56
2023-05-12T17:01:30.242Z,37.09
2023-05-12T17:03:59.416Z,37.05
2023-05-12T17:06:27.139Z,37.35
2023-05-12T17:08:54.545Z,37.06
2023-05-12T17:11:22.292Z,37.24
2023-05-12T17:13:49.727Z,37.23
2023-05-12T17:16:17.216Z,37.48
2023-05-12T17:21:16.957Z,37.25
2023-05-12T17:23:44.417Z,37.03
2023-05-12T17:26:11.832Z,37.52
2023-05-12T17:28:39.477Z,37.60
2023-05-12T17:31:07.444Z,37.29
2023-05-12T17:33:35.102Z,37.43
2023-05-12T17:36:11.729Z,37.61
2023-05-12T17:38:42.012Z,37.07
2023-05-12T17:41:09.877Z,37.08
2023-05-12T17:43:37.322Z,37.53
2023-05-12T17:46:05.351Z,37.03
2023-05-12T17:48:33.388Z,37.76
2023-05-12T17:51:01.276Z,38.00
2023-05-12T17:53:28.713Z,37.64
2023-05-12T17:55:57.506Z,37.68
2023-05-12T17:58:24.926Z,38.12
2023-05-12T18:00:52.925Z,37.78
2023-05-12T18:03:23.706Z,39.08
2023-05-12T18:05:51.899Z,38.29
2023-05-12T18:08:19.768Z,38.53
2023-05-12T18:10:47.647Z,38.75
2023-05-12T18:13:16.424Z,38.91
2023-05-12T18:15:44.230Z,38.61
2023-05-12T18:18:12.290Z,38.87
2023-05-12T18:20:39.859Z,38.75
2023-05-12T18:23:07.293Z,38.29
2023-05-12T18:25:34.849Z,38.59
2023-05-12T18:28:02.240Z,38.54
2023-05-12T18:30:31.087Z,38.17
2023-05-12T18:32:58.572Z,38.19
2023-05-12T18:35:27.051Z,38.63
2023-05-12T18:37:54.582Z,38.73
2023-05-12T18:40:22.108Z,39.34
2023-05-12T18:42:50.650Z,38.74
2023-05-12T18:45:19.444Z,39.20
2023-05-12T18:47:48.508Z,38.69
2023-05-12T18:50:16.148Z,38.71
2023-05-12T18:52:43.830Z,39.28
2023-05-12T18:55:11.325Z,39.70
2023-05-12T18:57:38.798Z,39.75
2023-05-12T19:00:07.758Z,39.88
2023-05-12T19:02:35.530Z,38.72
2023-05-12T19:05:04.830Z,39.30
2023-05-12T19:07:32.388Z,39.45
2023-05-12T19:09:59.797Z,39.25
2023-05-12T19:12:27.708Z,38.88
2023-05-12T19:14:55.494Z,40.33
2023-05-12T19:17:22.939Z,40.12
2023-05-12T19:19:50.679Z,39.44
2023-05-12T19:22:19.479Z,39.46
2023-05-12T19:24:47.368Z,39.84
2023-05-12T19:27:15.160Z,40.36
2023-05-12T19:29:42.930Z,39.73
2023-05-12T19:32:10.895Z,40.10
2023-05-12T19:34:39.862Z,40.66
2023-05-12T19:37:07.339Z,40.65
2023-05-12T19:39:36.038Z,40.33
2023-05-12T19:42:03.470Z,40.73
2023-05-12T19:44:30.902Z,41.54
2023-05-12T19:47:04.264Z,41.55
2023-05-12T19:49:33.579Z,41.17
2023-05-12T19:52:01.119Z,41.08
2023-05-12T19:54:28.677Z,41.30
2023-05-12T19:56:57.404Z,41.65
2023-05-12T19:59:26.618Z,41.86
2023-05-12T20:01:56.488Z,41.76
2023-05-12T20:04:25.401Z,41.29
2023-05-12T20:06:54.415Z,42.00
2023-05-12T20:09:23.243Z,42.66
2023-05-12T20:11:50.740Z,42.40
2023-05-12T20:14:19.581Z,42.38
2023-05-12T20:16:47.192Z,42.54
2023-05-12T20:19:14.788Z,43.03
2023-05-12T20:21:42.430Z,43.47
2023-05-12T20:24:10.095Z,43.59
2023-05-12T20:26:37.918Z,43.66
2023-05-12T20:29:05.414Z,43.46
2023-05-12T20:31:34.435Z,43.85
2023-05-12T20:34:02.158Z,42.98
2023-05-12T20:36:29.877Z,44.63
2023-05-12T20:38:58.209Z,44.19
2023-05-12T20:41:25.759Z,44.36
2023-05-12T20:43:53.271Z,44.32
2023-05-12T20:46:21.009Z,43.90
2023-05-12T20:48:49.853Z,44.09
2023-05-12T20:51:17.266Z,44.15
2023-05-12T20:53:44.971Z,44.21
2023-05-12T20:56:13.144Z,44.92
2023-05-12T20:58:40.758Z,45.12
2023-05-12T21:01:08.369Z,45.13
2023-05-12T21:03:35.900Z,45.02
2023-05-12T21:06:06.208Z,45.69
2023-05-12T21:08:33.638Z,44.94
2023-05-12T21:11:01.189Z,44.86
2023-05-12T21:13:28.598Z,46.16
2023-05-12T21:15:56.402Z,45.77
2023-05-12T21:18:24.070Z,45.30
2023-05-12T21:20:51.536Z,45.22
2023-05-12T21:23:20.237Z,45.30
2023-05-12T21:25:48.948Z,46.44
2023-05-12T21:28:16.408Z,46.24
2023-05-12T21:30:43.841Z,46.75
2023-05-12T21:33:11.336Z,47.51
2023-05-12T21:35:38.808Z,47.95
2023-05-12T21:38:08.556Z,49.53
2023-05-12T21:40:37.446Z,48.18
2023-05-12T21:43:05.264Z,48.27
2023-05-12T21:45:32.868Z,47.85
2023-05-12T21:48:00.444Z,48.03
2023-05-12T21:50:27.989Z,48.58
2023-05-12T21:52:55.425Z,47.79
2023-05-12T21:55:22.843Z,48.15
2023-05-12T21:57:51.645Z,48.86
2023-05-12T22:00:20.033Z,47.46
2023-05-12T22:02:48.517Z,48.63
2023-05-12T22:05:16.081Z,47.82
2023-05-12T22:07:43.940Z,48.79
2023-05-12T22:10:11.344Z,48.47
2023-05-12T22:12:38.814Z,48.21
2023-05-12T22:15:08.856Z,48.53
2023-05-12T22:17:36.326Z,48.02
2023-05-12T22:20:04.119Z,48.21
2023-05-12T22:22:31.540Z,49.09
2023-05-12T22:24:59.030Z,48.91
2023-05-12T22:27:26.437Z,49.11
2023-05-12T22:29:55.035Z,49.14
2023-05-12T22:32:23.967Z,49.75
2023-05-12T22:34:53.328Z,49.84
2023-05-12T22:37:20.916Z,49.71
2023-05-12T22:39:48.344Z,49.67
2023-05-12T22:42:15.769Z,49.63
2023-05-12T22:44:43.251Z,49.61
2023-05-12T22:47:10.806Z,49.86
2023-05-12T22:49:39.675Z,49.54
2023-05-12T22:52:07.497Z,49.18
2023-05-12T22:54:34.910Z,49.22
2023-05-12T22:57:02.287Z,48.35
2023-05-12T22:59:29.703Z,48.05
2023-05-12T23:01:57.618Z,49.76
2023-05-12T23:04:25.118Z,47.71
2023-05-12T23:06:53.881Z,49.10
2023-05-12T23:09:21.556Z,49.43
2023-05-12T23:11:48.957Z,48.21
2023-05-12T23:14:16.360Z,48.15
2023-05-12T23:16:43.876Z,47.56
2023-05-12T23:19:11.567Z,47.95
2023-05-12T23:21:39.004Z,48.06
2023-05-12T23:24:08.806Z,48.64
2023-05-12T23:26:36.258Z,48.03
2023-05-12T23:29:04.068Z,47.25
2023-05-12T23:31:31.484Z,48.43
2023-05-12T23:33:58.938Z,48.34
2023-05-12T23:36:26.368Z,48.84
2023-05-12T23:38:54.522Z,47.56
2023-05-12T23:41:23.308Z,47.82
2023-05-12T23:43:50.727Z,48.49
2023-05-12T23:46:18.207Z,49.32
2023-05-12T23:48:45.595Z,47.95
2023-05-12T23:51:12.995Z,47.98
2023-05-12T23:53:40.387Z,48.41
2023-05-12T23:56:08.557Z,48.08
2023-05-12T23:58:37.267Z,47.18
